Time;durP1;ratioP1;P1;durP2;ratioP2;P2;SDS_P1;SDS_P2;PMS_P1;PMS_P2;Temp;Humidity;BMP_temperature;BMP_pressure;BME280_temperature;BME280_humidity;BME280_pressure;Samples;Min_cycle;Max_cycle;Signal;HPM_P1;HPM_P2
2022/01/30 00:04:42;;;;;;;10.30;3.03;;;;;;;;;;10311834;28;20050;-68
2022/01/30 00:09:45;;;;;;;18.15;2.80;;;;;;;;;;10310991;28;20047;-68
2022/01/30 00:14:53;;;;;;;12.38;2.88;;;;;;;;;;10309836;28;20034;-68
2022/01/30 00:20:00;;;;;;;15.85;3.30;;;;;;;;;;10311061;28;20074;-68
2022/01/30 00:25:06;;;;;;;15.40;3.25;;;;;;;;;;10323408;28;20058;-67
2022/01/30 00:30:13;;;;;;;16.83;3.63;;;;;;;;;;10323551;28;20330;-68
2022/01/30 00:35:15;;;;;;;14.40;2.92;;;;;;;;;;10319847;28;20282;-68
2022/01/30 00:40:18;;;;;;;22.15;3.42;;;;;;;;;;10309708;28;20066;-69
2022/01/30 00:45:22;;;;;;;19.95;3.63;;;;;;;;;;10310150;28;20051;-68
2022/01/30 00:50:25;;;;;;;15.43;2.80;;;;;;;;;;10309610;28;20050;-68
2022/01/30 00:55:28;;;;;;;15.27;3.15;;;;;;;;;;10310250;28;20215;-68
2022/01/30 01:00:33;;;;;;;13.25;2.85;;;;;;;;;;10309860;28;20381;-68
2022/01/30 01:05:37;;;;;;;18.60;3.65;;;;;;;;;;10316129;28;20039;-68
2022/01/30 01:10:44;;;;;;;18.90;3.50;;;;;;;;;;10319222;28;20047;-68
2022/01/30 01:26:28;;;;;;;14.70;3.20;;;;;;;;;;10330633;28;20262;-68
2022/01/30 01:31:32;;;;;;;20.58;3.08;;;;;;;;;;10317620;28;20059;-68
2022/01/30 01:36:35;;;;;;;18.50;3.25;;;;;;;;;;10317046;28;20310;-68
2022/01/30 01:41:38;;;;;;;14.95;3.20;;;;;;;;;;10315324;28;20090;-67
2022/01/30 01:46:42;;;;;;;26.15;3.50;;;;;;;;;;10316548;28;20090;-67
2022/01/30 01:51:49;;;;;;;11.23;2.15;;;;;;;;;;10316125;28;20054;-67
2022/01/30 01:56:51;;;;;;;23.70;3.53;;;;;;;;;;10329336;28;20050;-67
2022/01/30 02:01:58;;;;;;;25.02;3.38;;;;;;;;;;10315748;28;20126;-67
2022/01/30 02:07:20;;;;;;;25.92;3.45;;;;;;;;;;10315815;28;20050;-67
2022/01/30 02:12:29;;;;;;;21.13;4.20;;;;;;;;;;10328900;28;20069;-67
2022/01/30 02:28:16;;;;;;;17.58;3.00;;;;;;;;;;10328859;28;20043;-68
2022/01/30 02:33:21;;;;;;;13.43;3.75;;;;;;;;;;10314785;28;20050;-67
2022/01/30 02:38:26;;;;;;;15.27;3.30;;;;;;;;;;10315261;28;20067;-67
2022/01/30 02:43:32;;;;;;;14.23;2.88;;;;;;;;;;10327692;28;20274;-67
2022/01/30 02:48:48;;;;;;;17.92;3.00;;;;;;;;;;10327376;28;20058;-67
2022/01/30 02:54:02;;;;;;;12.75;2.38;;;;;;;;;;10313730;28;20054;-68
2022/01/30 02:59:05;;;;;;;10.67;2.73;;;;;;;;;;10313899;28;20068;-68
2022/01/30 03:04:08;;;;;;;10.18;2.25;;;;;;;;;;10314098;28;20097;-68
2022/01/30 03:09:12;;;;;;;12.18;2.28;;;;;;;;;;10312510;28;20348;-68
2022/01/30 03:14:14;;;;;;;15.45;2.65;;;;;;;;;;10310796;28;20275;-67
2022/01/30 03:19:17;;;;;;;11.20;2.60;;;;;;;;;;10311533;28;20184;-67
2022/01/30 03:24:20;;;;;;;16.95;3.20;;;;;;;;;;10311305;28;20053;-68
2022/01/30 03:29:23;;;;;;;7.72;2.17;;;;;;;;;;10311181;28;20089;-67
2022/01/30 03:34:25;;;;;;;12.25;2.47;;;;;;;;;;10311091;28;20051;-67
2022/01/30 03:39:29;;;;;;;11.43;2.55;;;;;;;;;;10311000;28;20070;-68
2022/01/30 03:44:32;;;;;;;10.32;2.80;;;;;;;;;;10302851;28;20120;-67
2022/01/30 03:49:35;;;;;;;16.55;2.95;;;;;;;;;;10310014;28;20039;-67
2022/01/30 03:54:39;;;;;;;12.35;2.97;;;;;;;;;;10309672;28;20385;-68
2022/01/30 03:59:41;;;;;;;18.08;2.67;;;;;;;;;;10309844;28;20083;-67
2022/01/30 04:04:43;;;;;;;9.93;2.30;;;;;;;;;;10309893;28;20065;-67
2022/01/30 04:09:48;;;;;;;15.80;2.72;;;;;;;;;;10310142;28;20274;-67
2022/01/30 04:14:50;;;;;;;16.38;2.95;;;;;;;;;;10308483;28;20053;-67
2022/01/30 04:19:53;;;;;;;13.90;3.08;;;;;;;;;;10309881;28;20051;-68
2022/01/30 04:24:56;;;;;;;11.48;2.40;;;;;;;;;;10309313;28;20123;-68
2022/01/30 04:30:00;;;;;;;15.48;2.30;;;;;;;;;;10292568;28;20187;-68
2022/01/30 04:35:11;;;;;;;18.00;3.47;;;;;;;;;;10308869;28;20118;-67
2022/01/30 05:01:54;;;;;;;6.57;2.30;;;;;;;;;;10265143;29;20063;-66
2022/01/30 05:07:27;;;;;;;7.47;2.47;;;;;;;;;;10264527;29;20058;-67
2022/01/30 05:12:21;;;;;;;15.45;2.92;;;;;;;;;;10263601;29;20117;-67
2022/01/30 05:17:24;;;;;;;15.80;2.97;;;;;;;;;;10263905;29;20055;-67
2022/01/30 05:22:27;;;;;;;11.50;2.83;;;;;;;;;;10264137;29;20111;-68
2022/01/30 05:27:31;;;;;;;9.13;2.00;;;;;;;;;;10263724;29;20055;-67
2022/01/30 05:32:34;;;;;;;8.65;2.75;;;;;;;;;;10264148;29;20086;-67
2022/01/30 05:37:39;;;;;;;13.10;2.20;;;;;;;;;;10299409;28;20063;-68
2022/01/30 05:42:44;;;;;;;7.40;2.20;;;;;;;;;;10307691;28;20062;-67
2022/01/30 05:47:53;;;;;;;16.13;2.63;;;;;;;;;;10307503;28;20371;-68
2022/01/30 05:52:56;;;;;;;5.30;2.10;;;;;;;;;;10313581;28;20046;-67
2022/01/30 05:58:00;;;;;;;7.57;2.40;;;;;;;;;;10315893;28;20039;-67
2022/01/30 06:03:02;;;;;;;6.07;1.85;;;;;;;;;;10315387;28;20042;-65
2022/01/30 06:08:12;;;;;;;4.88;1.63;;;;;;;;;;10315054;28;20062;-67
2022/01/30 06:13:15;;;;;;;4.22;1.70;;;;;;;;;;10312674;28;20057;-66
2022/01/30 06:18:18;;;;;;;5.20;1.58;;;;;;;;;;10314204;28;20049;-66
2022/01/30 06:23:22;;;;;;;2.83;1.85;;;;;;;;;;10313031;28;20054;-68
2022/01/30 06:28:26;;;;;;;7.28;2.22;;;;;;;;;;10313696;28;20223;-66
2022/01/30 06:33:29;;;;;;;6.68;1.88;;;;;;;;;;10313050;28;20266;-68
2022/01/30 06:38:31;;;;;;;3.80;1.58;;;;;;;;;;10313209;28;20058;-68
2022/01/30 06:43:35;;;;;;;8.43;1.95;;;;;;;;;;10326750;28;20054;-65
2022/01/30 06:48:38;;;;;;;6.82;1.80;;;;;;;;;;10284671;28;20051;-67
2022/01/30 06:53:40;;;;;;;7.82;2.10;;;;;;;;;;10297306;28;20529;-68
2022/01/30 06:58:44;;;;;;;7.32;2.30;;;;;;;;;;10313562;28;20105;-68
2022/01/30 07:03:46;;;;;;;11.38;2.78;;;;;;;;;;10312187;28;20046;-68
2022/01/30 07:08:49;;;;;;;3.58;1.60;;;;;;;;;;10313642;28;20042;-65
2022/01/30 07:13:53;;;;;;;8.75;2.28;;;;;;;;;;10313326;28;20042;-67
2022/01/30 07:18:55;;;;;;;15.23;3.30;;;;;;;;;;10312681;28;20046;-67
2022/01/30 07:23:57;;;;;;;5.90;2.90;;;;;;;;;;10312878;28;20314;-69
2022/01/30 07:29:03;;;;;;;6.53;2.60;;;;;;;;;;10302578;28;20050;-69
2022/01/30 07:34:06;;;;;;;13.63;2.55;;;;;;;;;;10312225;28;20047;-67
2022/01/30 07:39:11;;;;;;;12.70;3.80;;;;;;;;;;10312305;28;20257;-68
2022/01/30 07:44:16;;;;;;;;;;;;;;;;;;10324954;28;20047;-69
2022/01/30 07:49:18;;;;;;;17.83;3.50;;;;;;;;;;10309839;28;19926;-69
2022/01/30 07:54:20;;;;;;;35.60;6.32;;;;;;;;;;10311997;28;20038;-67
2022/01/30 07:59:25;;;;;;;14.35;3.63;;;;;;;;;;10313301;28;20042;-68
2022/01/30 08:04:28;;;;;;;11.03;3.57;;;;;;;;;;10310584;28;20066;-67
2022/01/30 08:09:30;;;;;;;12.10;2.83;;;;;;;;;;10311070;28;20034;-69
2022/01/30 08:14:34;;;;;;;9.98;2.53;;;;;;;;;;10309600;28;20084;-69
2022/01/30 08:19:36;;;;;;;12.68;3.15;;;;;;;;;;10311170;28;20140;-67
2022/01/30 08:24:39;;;;;;;10.93;3.10;;;;;;;;;;10310105;28;20055;-68
2022/01/30 08:29:43;;;;;;;12.63;3.47;;;;;;;;;;10308982;28;20070;-74
2022/01/30 08:34:46;;;;;;;15.05;3.00;;;;;;;;;;10310322;28;20046;-67
2022/01/30 08:39:48;;;;;;;20.33;4.07;;;;;;;;;;10309545;28;20082;-67
2022/01/30 08:44:52;;;;;;;16.88;3.85;;;;;;;;;;10309729;28;20046;-69
2022/01/30 08:49:55;;;;;;;14.60;3.80;;;;;;;;;;10308001;28;20038;-69
2022/01/30 08:54:57;;;;;;;19.65;4.40;;;;;;;;;;10307439;28;20465;-69
2022/01/30 09:00:01;;;;;;;15.63;4.95;;;;;;;;;;10279569;28;20050;-68
2022/01/30 09:05:04;;;;;;;22.92;5.70;;;;;;;;;;10306691;28;20070;-72
2022/01/30 09:10:09;;;;;;;25.08;4.85;;;;;;;;;;10309805;28;20047;-71
2022/01/30 09:15:15;;;;;;;26.90;5.25;;;;;;;;;;10307546;28;20044;-66
2022/01/30 09:20:17;;;;;;;29.88;5.47;;;;;;;;;;10321649;28;20051;-68
2022/01/30 09:25:19;;;;;;;23.33;5.70;;;;;;;;;;10311751;28;20070;-67
2022/01/30 09:30:23;;;;;;;24.38;4.82;;;;;;;;;;10316577;28;20050;-66
2022/01/30 09:35:25;;;;;;;22.05;4.82;;;;;;;;;;10316540;28;20124;-67
2022/01/30 09:40:28;;;;;;;18.15;4.63;;;;;;;;;;10316017;28;20140;-67
2022/01/30 09:45:33;;;;;;;22.02;3.95;;;;;;;;;;10316670;28;20252;-68
2022/01/30 09:50:36;;;;;;;16.63;4.23;;;;;;;;;;10295623;28;20035;-66
2022/01/30 09:55:39;;;;;;;21.65;4.78;;;;;;;;;;10315648;28;20050;-66
2022/01/30 10:00:43;;;;;;;17.58;4.40;;;;;;;;;;10315097;28;20049;-67
2022/01/30 10:06:01;;;;;;;15.57;4.22;;;;;;;;;;10315695;28;20090;-67
2022/01/30 10:11:26;;;;;;;18.50;4.25;;;;;;;;;;10328857;28;20047;-68
2022/01/30 10:16:28;;;;;;;15.05;3.95;;;;;;;;;;10311635;28;20043;-66
2022/01/30 10:21:32;;;;;;;16.95;3.63;;;;;;;;;;10318251;28;20234;-70
2022/01/30 10:26:35;;;;;;;16.30;3.17;;;;;;;;;;10297332;28;20358;-66
2022/01/30 10:31:57;;;;;;;15.75;3.20;;;;;;;;;;10314420;28;20054;-67
2022/01/30 10:37:16;;;;;;;13.05;3.55;;;;;;;;;;10318225;28;20043;-68
2022/01/30 10:42:38;;;;;;;11.48;3.03;;;;;;;;;;10314273;28;20070;-67
2022/01/30 10:47:44;;;;;;;10.77;3.33;;;;;;;;;;10324600;28;20046;-67
2022/01/30 10:52:50;;;;;;;;;;;;;;;;;;10313783;28;20055;-67
2022/01/30 10:57:52;;;;;;;;;;;;;;;;;;10305168;28;19918;-72
2022/01/30 11:02:55;;;;;;;14.32;3.05;;;;;;;;;;10306634;28;19926;-67
2022/01/30 11:07:58;;;;;;;9.82;3.20;;;;;;;;;;10290405;28;20095;-69
2022/01/30 11:13:08;;;;;;;12.60;4.07;;;;;;;;;;10309232;28;20050;-67
2022/01/30 11:18:13;;;;;;;10.85;3.17;;;;;;;;;;10324989;28;20039;-68
2022/01/30 11:23:16;;;;;;;11.15;3.75;;;;;;;;;;10310727;28;20046;-69
2022/01/30 11:28:20;;;;;;;7.10;2.63;;;;;;;;;;10311819;28;20089;-69
2022/01/30 11:33:25;;;;;;;8.25;2.83;;;;;;;;;;10311683;28;20101;-68
2022/01/30 11:38:28;;;;;;;9.68;2.75;;;;;;;;;;10308598;28;20051;-68
2022/01/30 11:43:31;;;;;;;14.00;3.13;;;;;;;;;;9421339;28;10000754;-68
2022/01/30 11:48:35;;;;;;;12.27;2.42;;;;;;;;;;10269682;28;20058;-67
2022/01/30 11:53:38;;;;;;;17.92;3.50;;;;;;;;;;10272057;28;20047;-68
2022/01/30 11:58:47;;;;;;;18.98;3.50;;;;;;;;;;10271735;28;20051;-67
2022/01/30 12:03:59;;;;;;;17.50;3.45;;;;;;;;;;10258970;28;20051;-69
2022/01/30 12:09:03;;;;;;;9.45;3.20;;;;;;;;;;10271748;28;20254;-68
2022/01/30 12:14:07;;;;;;;14.10;3.23;;;;;;;;;;10270558;29;20059;-67
2022/01/30 12:19:12;;;;;;;20.02;3.60;;;;;;;;;;10271045;28;20339;-67
2022/01/30 12:24:25;;;;;;;22.85;6.10;;;;;;;;;;10268535;28;20058;-69
2022/01/30 12:29:38;;;;;;;36.92;8.48;;;;;;;;;;10270766;29;20043;-66
2022/01/30 12:34:42;;;;;;;15.07;4.50;;;;;;;;;;10269546;28;20039;-67
2022/01/30 12:39:44;;;;;;;18.08;3.50;;;;;;;;;;10279682;28;20051;-67
2022/01/30 12:44:48;;;;;;;14.68;3.20;;;;;;;;;;10288245;28;20057;-68
2022/01/30 12:49:56;;;;;;;12.75;2.72;;;;;;;;;;10310387;28;20071;-69
2022/01/30 12:55:05;;;;;;;11.23;2.95;;;;;;;;;;10323773;28;20047;-69
2022/01/30 13:00:10;;;;;;;11.20;3.03;;;;;;;;;;10322759;28;20246;-67
2022/01/30 13:05:14;;;;;;;14.73;3.65;;;;;;;;;;10308470;28;20047;-66
2022/01/30 13:10:16;;;;;;;10.52;2.95;;;;;;;;;;10308460;28;20219;-67
2022/01/30 13:15:23;;;;;;;15.50;3.55;;;;;;;;;;10309418;28;20377;-67
2022/01/30 13:20:28;;;;;;;14.10;2.75;;;;;;;;;;10309250;28;20051;-67
2022/01/30 13:25:31;;;;;;;11.10;2.88;;;;;;;;;;10308931;28;20047;-66
2022/01/30 13:30:34;;;;;;;7.63;2.20;;;;;;;;;;10309021;28;20058;-67
2022/01/30 13:35:38;;;;;;;7.78;2.60;;;;;;;;;;10308688;28;20042;-67
2022/01/30 13:40:55;;;;;;;10.25;2.85;;;;;;;;;;10309620;28;20061;-68
2022/01/30 13:51:22;;;;;;;8.80;2.63;;;;;;;;;;10320551;28;20050;-68
2022/01/30 13:56:24;;;;;;;6.60;2.33;;;;;;;;;;10322456;28;20042;-69
2022/01/30 14:01:30;;;;;;;5.70;2.15;;;;;;;;;;10307312;28;20278;-69
2022/01/30 14:06:36;;;;;;;9.15;2.03;;;;;;;;;;10320883;28;20070;-67
2022/01/30 14:11:40;;;;;;;8.98;2.25;;;;;;;;;;10310628;28;20046;-68
2022/01/30 14:16:47;;;;;;;5.78;1.98;;;;;;;;;;10314941;28;20149;-69
2022/01/30 14:21:54;;;;;;;7.32;2.55;;;;;;;;;;10328374;28;20123;-67
2022/01/30 14:27:06;;;;;;;5.38;2.05;;;;;;;;;;10314768;28;20043;-68
2022/01/30 14:32:10;;;;;;;4.95;1.85;;;;;;;;;;10328040;28;20039;-68
2022/01/30 14:37:16;;;;;;;9.40;2.60;;;;;;;;;;10313892;28;20057;-68
2022/01/30 14:42:20;;;;;;;5.85;1.73;;;;;;;;;;10314823;28;20109;-71
2022/01/30 14:47:22;;;;;;;6.53;2.00;;;;;;;;;;10315252;28;20054;-70
2022/01/30 14:52:26;;;;;;;7.60;2.22;;;;;;;;;;10313952;28;20051;-67
2022/01/30 14:57:30;;;;;;;8.05;2.47;;;;;;;;;;10328432;28;20066;-66
2022/01/30 15:02:33;;;;;;;8.38;2.53;;;;;;;;;;10322225;28;20058;-68
2022/01/30 15:07:37;;;;;;;7.60;2.17;;;;;;;;;;10308518;28;20047;-66
2022/01/30 15:12:41;;;;;;;13.65;2.80;;;;;;;;;;10274397;28;20054;-66
2022/01/30 15:17:43;;;;;;;6.57;2.08;;;;;;;;;;10313708;28;20043;-67
2022/01/30 15:22:47;;;;;;;7.25;1.95;;;;;;;;;;10313226;28;20051;-66
2022/01/30 15:27:50;;;;;;;14.88;3.40;;;;;;;;;;10313163;28;20249;-69
2022/01/30 15:32:53;;;;;;;9.70;3.38;;;;;;;;;;10314478;28;20051;-67
2022/01/30 15:37:57;;;;;;;14.77;4.38;;;;;;;;;;10312681;28;20042;-68
2022/01/30 15:43:00;;;;;;;9.75;2.50;;;;;;;;;;10312675;28;20066;-67
2022/01/30 15:53:25;;;;;;;21.95;5.40;;;;;;;;;;10299636;28;20123;-68
2022/01/30 15:58:28;;;;;;;18.48;5.60;;;;;;;;;;10312114;28;20100;-69
2022/01/30 16:03:33;;;;;;;20.38;6.95;;;;;;;;;;10311846;28;20055;-69
2022/01/30 16:08:40;;;;;;;17.10;4.03;;;;;;;;;;10311346;28;20127;-68
2022/01/30 16:19:01;;;;;;;21.83;4.80;;;;;;;;;;10324791;28;20373;-68
2022/01/30 16:24:06;;;;;;;19.33;4.85;;;;;;;;;;10310625;28;20054;-68
2022/01/30 16:29:09;;;;;;;14.55;3.47;;;;;;;;;;10311174;28;20234;-67
2022/01/30 16:34:12;;;;;;;13.10;4.07;;;;;;;;;;10311364;28;20057;-67
2022/01/30 16:39:16;;;;;;;13.43;3.33;;;;;;;;;;10310265;28;20362;-69
2022/01/30 16:44:23;;;;;;;16.65;4.13;;;;;;;;;;10310521;28;20238;-69
2022/01/30 16:49:25;;;;;;;21.13;6.18;;;;;;;;;;10323122;28;20039;-69
2022/01/30 16:54:30;;;;;;;17.80;3.95;;;;;;;;;;10309386;28;20054;-68
2022/01/30 16:59:32;;;;;;;17.75;3.72;;;;;;;;;;10309668;28;20299;-68
2022/01/30 17:04:35;;;;;;;17.42;3.53;;;;;;;;;;10309950;28;20357;-68
2022/01/30 17:09:40;;;;;;;15.57;3.42;;;;;;;;;;10309561;28;20090;-67
2022/01/30 17:14:42;;;;;;;15.65;3.40;;;;;;;;;;10309647;28;20050;-65
2022/01/30 17:19:45;;;;;;;23.92;3.33;;;;;;;;;;10309946;28;20050;-69
2022/01/30 17:24:49;;;;;;;9.93;2.88;;;;;;;;;;10307569;28;20050;-69
2022/01/30 17:29:51;;;;;;;16.60;3.33;;;;;;;;;;10305284;28;20035;-68
2022/01/30 17:34:53;;;;;;;17.20;3.40;;;;;;;;;;10293619;28;20046;-68
2022/01/30 17:39:58;;;;;;;15.15;3.50;;;;;;;;;;10308356;28;20074;-68
2022/01/30 17:45:00;;;;;;;14.07;3.47;;;;;;;;;;10311670;28;20051;-67
2022/01/30 17:50:03;;;;;;;19.40;3.65;;;;;;;;;;10316079;28;20113;-69
2022/01/30 17:55:08;;;;;;;20.42;4.63;;;;;;;;;;10316158;28;20105;-67
2022/01/30 18:00:13;;;;;;;18.20;5.28;;;;;;;;;;10329419;28;20050;-69
2022/01/30 18:05:16;;;;;;;16.10;3.87;;;;;;;;;;10317301;28;20043;-67
2022/01/30 18:10:20;;;;;;;13.88;2.85;;;;;;;;;;10316298;28;20047;-67
2022/01/30 18:15:22;;;;;;;15.75;3.47;;;;;;;;;;10315467;28;20043;-66
2022/01/30 18:20:26;;;;;;;16.30;3.45;;;;;;;;;;10315512;28;20395;-68
2022/01/30 18:25:30;;;;;;;11.18;3.78;;;;;;;;;;10314714;28;20367;-68
2022/01/30 18:30:33;;;;;;;18.90;3.75;;;;;;;;;;10340654;28;20338;-67
2022/01/30 18:35:38;;;;;;;23.48;3.85;;;;;;;;;;10315056;28;20058;-68
2022/01/30 18:40:56;;;;;;;9.90;3.63;;;;;;;;;;10313862;28;20074;-67
2022/01/30 18:45:59;;;;;;;19.77;3.83;;;;;;;;;;10327465;28;20117;-68
2022/01/30 18:51:01;;;;;;;16.33;3.05;;;;;;;;;;10314895;28;20049;-71
2022/01/30 18:56:06;;;;;;;17.40;3.65;;;;;;;;;;10314190;28;20054;-68
2022/01/30 19:01:08;;;;;;;24.20;5.63;;;;;;;;;;10314291;28;20053;-69
2022/01/30 19:06:11;;;;;;;14.65;3.92;;;;;;;;;;10314424;28;20050;-67
2022/01/30 19:11:14;;;;;;;15.50;3.10;;;;;;;;;;10292465;28;20133;-68
2022/01/30 19:16:17;;;;;;;17.48;4.22;;;;;;;;;;10312945;28;20365;-69
2022/01/30 19:21:20;;;;;;;16.98;3.38;;;;;;;;;;10312948;28;20039;-68
2022/01/30 19:26:25;;;;;;;11.45;3.13;;;;;;;;;;10312270;28;20050;-65
2022/01/30 19:31:28;;;;;;;17.55;3.50;;;;;;;;;;10312872;28;20051;-67
2022/01/30 19:36:30;;;;;;;16.55;3.80;;;;;;;;;;10311459;28;20035;-69
2022/01/30 19:41:36;;;;;;;12.10;2.97;;;;;;;;;;10312453;28;20109;-67
2022/01/30 19:46:39;;;;;;;13.55;3.00;;;;;;;;;;10311731;28;20054;-68
2022/01/30 19:51:42;;;;;;;21.95;4.65;;;;;;;;;;10309506;28;20039;-66
2022/01/30 19:56:46;;;;;;;15.82;3.22;;;;;;;;;;10311377;28;20081;-69
2022/01/30 20:01:48;;;;;;;16.52;3.30;;;;;;;;;;10311009;28;20053;-69
2022/01/30 20:06:50;;;;;;;13.82;3.03;;;;;;;;;;10310547;28;20046;-66
2022/01/30 20:11:54;;;;;;;15.50;3.88;;;;;;;;;;10309495;28;20046;-66
2022/01/30 20:16:57;;;;;;;16.90;3.50;;;;;;;;;;10310403;28;20046;-67
2022/01/30 20:22:02;;;;;;;17.30;4.60;;;;;;;;;;10310642;28;20306;-67
2022/01/30 20:27:08;;;;;;;11.23;3.42;;;;;;;;;;10309633;28;20054;-67
2022/01/30 20:32:21;;;;;;;14.15;2.60;;;;;;;;;;10323930;28;20114;-69
2022/01/30 20:37:27;;;;;;;14.75;4.07;;;;;;;;;;10310767;28;20236;-68
2022/01/30 20:42:31;;;;;;;14.93;4.03;;;;;;;;;;10310297;28;20059;-67
2022/01/30 20:47:33;;;;;;;13.90;4.00;;;;;;;;;;10309699;28;20046;-69
2022/01/30 20:52:36;;;;;;;16.27;3.85;;;;;;;;;;10310819;28;20051;-67
2022/01/30 20:57:40;;;;;;;15.80;3.28;;;;;;;;;;10309768;28;20046;-69
2022/01/30 21:02:43;;;;;;;18.25;4.97;;;;;;;;;;10308787;28;20046;-69
2022/01/30 21:07:45;;;;;;;23.23;4.82;;;;;;;;;;10308385;28;20089;-70
2022/01/30 21:12:53;;;;;;;16.60;4.38;;;;;;;;;;10308845;28;20039;-67
2022/01/30 21:17:55;;;;;;;23.05;5.03;;;;;;;;;;10322778;28;20038;-69
2022/01/30 21:22:58;;;;;;;17.25;4.70;;;;;;;;;;10313446;28;20043;-67
2022/01/30 21:28:03;;;;;;;29.33;5.32;;;;;;;;;;10317580;28;20077;-67
2022/01/30 21:33:05;;;;;;;15.93;4.07;;;;;;;;;;10316400;28;20037;-69
2022/01/30 21:38:07;;;;;;;20.58;5.88;;;;;;;;;;10316770;28;20046;-67
2022/01/30 21:43:12;;;;;;;19.83;4.60;;;;;;;;;;10316499;28;20251;-68
2022/01/30 21:48:15;;;;;;;27.50;4.32;;;;;;;;;;10316449;28;20046;-68
2022/01/30 21:53:18;;;;;;;25.30;4.47;;;;;;;;;;10316606;28;20046;-68
2022/01/30 21:58:22;;;;;;;17.48;4.22;;;;;;;;;;10316280;28;20055;-67
2022/01/30 22:03:24;;;;;;;22.02;5.07;;;;;;;;;;10315399;28;20047;-68
2022/01/30 22:08:27;;;;;;;24.63;4.57;;;;;;;;;;10316602;28;20113;-65
2022/01/30 22:13:37;;;;;;;21.85;4.95;;;;;;;;;;10315194;28;20349;-70
2022/01/30 22:18:40;;;;;;;18.40;3.88;;;;;;;;;;10327936;28;20042;-67
2022/01/30 22:23:42;;;;;;;21.83;4.50;;;;;;;;;;10293365;28;20043;-67
2022/01/30 22:28:47;;;;;;;44.63;13.50;;;;;;;;;;10315645;28;20081;-68
2022/01/30 22:33:50;;;;;;;20.42;6.25;;;;;;;;;;10312632;28;20051;-68
2022/01/30 22:38:52;;;;;;;26.23;7.35;;;;;;;;;;10313210;28;20054;-66
2022/01/30 22:43:56;;;;;;;21.63;5.22;;;;;;;;;;10314440;28;20089;-67
2022/01/30 22:48:59;;;;;;;23.98;5.82;;;;;;;;;;10314106;28;20054;-68
2022/01/30 22:54:01;;;;;;;19.80;5.05;;;;;;;;;;10313170;28;20145;-67
2022/01/30 22:59:05;;;;;;;19.10;4.75;;;;;;;;;;10313859;28;20043;-69
2022/01/30 23:04:07;;;;;;;20.90;4.03;;;;;;;;;;10311920;28;20246;-69
2022/01/30 23:09:09;;;;;;;23.27;4.68;;;;;;;;;;10313838;28;20058;-67
2022/01/30 23:14:13;;;;;;;17.52;4.13;;;;;;;;;;10312957;28;20058;-67
2022/01/30 23:19:15;;;;;;;24.50;4.70;;;;;;;;;;10311691;28;20050;-68
2022/01/30 23:24:19;;;;;;;21.85;4.28;;;;;;;;;;10312187;28;20039;-68
2022/01/30 23:29:24;;;;;;;23.15;4.35;;;;;;;;;;10312222;28;20053;-67
2022/01/30 23:34:26;;;;;;;24.75;4.00;;;;;;;;;;10311419;28;20074;-67
2022/01/30 23:39:33;;;;;;;19.33;4.03;;;;;;;;;;10311902;28;20058;-67
2022/01/30 23:44:37;;;;;;;25.25;5.28;;;;;;;;;;10324911;28;20042;-69
2022/01/30 23:49:39;;;;;;;21.63;4.38;;;;;;;;;;10310468;28;20062;-69
2022/01/30 23:54:41;;;;;;;19.80;4.55;;;;;;;;;;10311485;28;20042;-66
2022/01/30 23:59:46;;;;;;;26.15;4.85;;;;;;;;;;10310986;28;20046;-69
